Mechanic, Ohio
Current Conditions -  °F | °C
As of 8:53 AM on Wednesday 26 Nov 2014 (Local Time) from KPHD Reporting Station
Overcast Overcast  
Wind Chill: 29°   Ceiling: 10000
Heat Index: 33°   Visibility: 10mi
Dew Point: 26°   Wind: 5mph
Humidity: 75%   Direction: 20°NNE
Pressure: 30.09"   Gusts: NA
Location:  40.4489°N, 81.6949°W
Report Text: KPHD 261353Z AUTO 02004KT 10SM OVC100 01/M03 A3009 RMK AO2 SLP199 T00061033
Loading
Personal Weather Stations






























Interactive Weather Map New forecast layout! Learn more

10-Day Weather Forecast

Advertisements
Track Severe Weather on mobile